Time;durP1;ratioP1;P1;durP2;ratioP2;P2;SDS_P1;SDS_P2;PMS_P1;PMS_P2;Temp;Humidity;BMP_temperature;BMP_pressure;BME280_temperature;BME280_humidity;BME280_pressure;Samples;Min_cycle;Max_cycle;Signal;HPM_P1;HPM_P2
2021/11/04 00:00:21;;;;;;;26.73;19.47;;;11.10;99.90;;;;;;5014559;28;20413;-71
2021/11/04 00:02:47;;;;;;;27.13;20.70;;;11.10;99.90;;;;;;5014951;28;20600;-71
2021/11/04 00:05:13;;;;;;;30.03;20.80;;;11.10;99.90;;;;;;5014124;28;20446;-72
2021/11/04 00:07:39;;;;;;;29.73;21.70;;;11.10;99.90;;;;;;5014917;28;20729;-71
2021/11/04 00:10:08;;;;;;;28.60;21.50;;;11.10;99.90;;;;;;5014741;28;20412;-71
2021/11/04 00:12:34;;;;;;;31.03;23.07;;;11.00;99.90;;;;;;5013880;28;20898;-71
2021/11/04 00:15:00;;;;;;;29.33;21.40;;;11.10;99.90;;;;;;5014873;28;20421;-71
2021/11/04 00:17:27;;;;;;;28.83;21.30;;;11.00;99.90;;;;;;5014148;28;20413;-71
2021/11/04 00:19:52;;;;;;;35.40;24.13;;;11.00;99.90;;;;;;5014829;28;20505;-71
2021/11/04 00:22:18;;;;;;;33.90;23.77;;;11.00;99.90;;;;;;4979509;28;20543;-71
2021/11/04 00:24:44;;;;;;;42.70;24.60;;;11.00;99.90;;;;;;5014701;28;20273;-71
2021/11/04 00:27:10;;;;;;;40.23;25.83;;;11.00;99.90;;;;;;5014599;28;20937;-71
2021/11/04 00:29:36;;;;;;;33.60;23.73;;;11.10;99.90;;;;;;4996067;28;20190;-71
2021/11/04 00:32:03;;;;;;;34.80;24.77;;;11.00;99.90;;;;;;5014476;28;20178;-71
2021/11/04 00:34:28;;;;;;;34.40;24.50;;;11.00;99.90;;;;;;5013845;28;20412;-71
2021/11/04 00:36:54;;;;;;;35.63;25.00;;;11.00;99.90;;;;;;5014217;28;20500;-71
2021/11/04 00:39:20;;;;;;;32.03;22.90;;;11.00;99.90;;;;;;5013741;28;20187;-71
2021/11/04 00:41:46;;;;;;;38.40;25.17;;;11.00;99.90;;;;;;5014107;28;20241;-71
2021/11/04 00:44:12;;;;;;;35.43;26.10;;;11.00;99.90;;;;;;5014372;28;20409;-71
2021/11/04 00:46:40;;;;;;;39.47;26.80;;;11.00;99.90;;;;;;5013597;28;20286;-71
2021/11/04 00:49:05;;;;;;;40.40;25.03;;;11.00;99.90;;;;;;5014155;28;20424;-71
2021/11/04 00:51:31;;;;;;;34.90;25.23;;;11.10;99.90;;;;;;5013543;28;20404;-71
2021/11/04 00:53:57;;;;;;;38.13;25.57;;;11.00;99.90;;;;;;5014126;28;20256;-71
2021/11/04 00:56:23;;;;;;;39.40;26.43;;;11.00;99.90;;;;;;5013454;28;20272;-71
2021/11/04 00:58:49;;;;;;;35.83;25.60;;;11.10;99.90;;;;;;4996487;28;20406;-71
2021/11/04 01:01:22;;;;;;;37.50;26.07;;;11.00;99.90;;;;;;5013376;28;20427;-74
2021/11/04 01:03:49;;;;;;;33.13;25.03;;;11.00;99.90;;;;;;5014024;28;20500;-71
2021/11/04 01:06:15;;;;;;;35.73;23.43;;;11.00;99.90;;;;;;5013897;28;20881;-71
2021/11/04 01:08:41;;;;;;;32.90;23.83;;;11.00;99.90;;;;;;5013904;28;20485;-71
2021/11/04 01:11:08;;;;;;;34.20;24.37;;;11.00;99.90;;;;;;5013848;28;20422;-71
2021/11/04 01:13:34;;;;;;;34.17;24.00;;;11.00;99.90;;;;;;5013134;28;20495;-71
2021/11/04 01:16:00;;;;;;;36.30;23.90;;;11.00;99.90;;;;;;5013684;28;20417;-71
2021/11/04 01:18:26;;;;;;;31.47;21.83;;;11.00;99.90;;;;;;5013101;28;20431;-71
2021/11/04 01:20:53;;;;;;;30.03;23.10;;;11.00;99.90;;;;;;5013646;28;20190;-71
2021/11/04 01:23:19;;;;;;;32.60;22.67;;;11.00;99.90;;;;;;5012842;28;20217;-71
2021/11/04 01:25:44;;;;;;;31.57;22.17;;;11.00;99.90;;;;;;5013529;28;20417;-71
2021/11/04 01:28:10;;;;;;;35.93;24.50;;;11.00;99.90;;;;;;4996066;28;20877;-71
2021/11/04 01:30:38;;;;;;;34.83;22.90;;;11.00;99.90;;;;;;4995364;28;20675;-71
2021/11/04 01:33:04;;;;;;;29.00;22.00;;;11.00;99.90;;;;;;5013192;28;20806;-71
2021/11/04 01:35:33;;;;;;;35.40;23.70;;;11.00;99.90;;;;;;5012776;28;20411;-71
2021/11/04 01:38:00;;;;;;;30.43;21.87;;;11.00;99.90;;;;;;5013299;28;20440;-71
2021/11/04 01:40:27;;;;;;;35.53;22.80;;;11.00;99.90;;;;;;5012663;28;20804;-71
2021/11/04 01:42:53;;;;;;;37.47;23.67;;;11.00;99.90;;;;;;5012812;28;20478;-71
2021/11/04 01:45:19;;;;;;;35.20;23.27;;;11.00;99.90;;;;;;5012590;28;20417;-71
2021/11/04 01:47:46;;;;;;;33.67;24.13;;;11.00;99.90;;;;;;5013182;28;20430;-71
2021/11/04 01:50:17;;;;;;;33.70;23.27;;;11.00;99.90;;;;;;5013153;28;20171;-71
2021/11/04 01:52:43;;;;;;;33.53;22.27;;;11.00;99.90;;;;;;5012786;28;20412;-71
2021/11/04 01:55:17;;;;;;;30.10;22.00;;;11.00;99.90;;;;;;5013100;28;20882;-71
2021/11/04 01:57:43;;;;;;;31.90;22.37;;;10.90;99.90;;;;;;5012494;28;20412;-71
2021/11/04 02:00:09;;;;;;;31.40;21.97;;;11.00;99.90;;;;;;5012927;28;20443;-71
2021/11/04 02:02:48;;;;;;;33.10;22.57;;;11.00;99.90;;;;;;5012004;28;20458;-71
2021/11/04 02:05:19;;;;;;;32.37;22.07;;;11.00;99.90;;;;;;5012654;28;20762;-71
2021/11/04 02:07:54;;;;;;;38.17;23.50;;;10.90;99.90;;;;;;5012950;28;20716;-71
2021/11/04 02:10:28;;;;;;;30.20;22.20;;;10.90;99.90;;;;;;5012346;28;20405;-72
2021/11/04 02:13:13;;;;;;;31.77;22.10;;;11.00;99.90;;;;;;5012888;28;20401;-71
2021/11/04 02:15:42;;;;;;;32.27;22.07;;;11.00;99.90;;;;;;5012222;28;20435;-71
2021/11/04 02:18:10;;;;;;;34.60;22.47;;;10.90;99.90;;;;;;5012790;28;20518;-71
2021/11/04 02:21:02;;;;;;;33.53;22.10;;;10.90;99.90;;;;;;5012186;28;20516;-71
2021/11/04 02:23:45;;;;;;;31.70;22.37;;;10.90;99.90;;;;;;5012215;28;20788;-71
2021/11/04 02:26:11;;;;;;;32.23;23.03;;;10.90;99.90;;;;;;5012474;28;20413;-71
2021/11/04 02:28:39;;;;;;;31.93;22.97;;;10.90;99.90;;;;;;5012128;28;20485;-71
2021/11/04 02:31:07;;;;;;;34.17;23.07;;;10.90;99.90;;;;;;5012710;28;20799;-71
2021/11/04 02:33:34;;;;;;;34.60;23.17;;;10.90;99.90;;;;;;5012425;28;20566;-71
2021/11/04 02:36:00;;;;;;;37.43;25.17;;;10.90;99.90;;;;;;5012674;28;20436;-71
2021/11/04 02:38:31;;;;;;;33.97;23.10;;;11.00;99.90;;;;;;5011823;28;20414;-71
2021/11/04 02:40:58;;;;;;;33.53;22.70;;;10.90;99.90;;;;;;5012526;28;20417;-71
2021/11/04 02:43:25;;;;;;;34.40;22.70;;;10.90;99.90;;;;;;5012014;28;20570;-71
2021/11/04 02:45:53;;;;;;;35.73;22.67;;;10.90;99.90;;;;;;5014843;28;20728;-71
2021/11/04 02:48:18;;;;;;;35.47;22.73;;;10.90;99.90;;;;;;5016446;28;20787;-71
2021/11/04 02:50:49;;;;;;;34.83;22.60;;;10.90;99.90;;;;;;5015775;28;20408;-71
2021/11/04 02:53:22;;;;;;;37.40;23.73;;;10.90;99.90;;;;;;5016394;28;20737;-71
2021/11/04 02:55:50;;;;;;;34.27;22.93;;;10.90;99.90;;;;;;5016488;28;20792;-71
2021/11/04 02:58:17;;;;;;;35.80;23.40;;;10.80;99.90;;;;;;5015983;28;20940;-71
2021/11/04 03:00:49;;;;;;;33.40;22.93;;;10.90;99.90;;;;;;5015583;28;20411;-71
2021/11/04 03:03:15;;;;;;;37.40;24.13;;;10.90;99.90;;;;;;5016334;28;20481;-71
2021/11/04 03:05:41;;;;;;;32.57;22.43;;;10.90;99.90;;;;;;5015212;28;20419;-71
2021/11/04 03:08:07;;;;;;;35.63;23.20;;;10.90;99.90;;;;;;5016136;28;20898;-71
2021/11/04 03:10:33;;;;;;;39.20;22.60;;;10.90;99.90;;;;;;5015127;28;20487;-71
2021/11/04 03:12:58;;;;;;;35.73;23.20;;;10.90;99.90;;;;;;5016120;28;20193;-71
2021/11/04 03:15:26;;;;;;;32.00;21.60;;;10.90;99.90;;;;;;5015365;28;20408;-71
2021/11/04 03:17:53;;;;;;;31.77;23.23;;;10.90;99.90;;;;;;5015940;28;20185;-71
2021/11/04 03:20:20;;;;;;;33.87;23.93;;;10.80;99.90;;;;;;4998307;28;20441;-71
2021/11/04 03:22:48;;;;;;;32.20;22.67;;;10.90;99.90;;;;;;5015234;28;20843;-71
2021/11/04 03:25:20;;;;;;;34.17;23.63;;;10.90;99.90;;;;;;5015760;28;20888;-71
2021/11/04 03:27:52;;;;;;;36.00;22.80;;;10.90;99.90;;;;;;4997605;28;20812;-71
2021/11/04 03:30:23;;;;;;;35.17;24.37;;;10.90;99.90;;;;;;4998347;28;20429;-71
2021/11/04 03:32:51;;;;;;;37.97;24.20;;;10.90;99.90;;;;;;5015638;28;20876;-71
2021/11/04 03:35:17;;;;;;;40.50;23.93;;;10.80;99.90;;;;;;5015633;28;20411;-71
2021/11/04 03:37:46;;;;;;;38.77;26.30;;;10.90;99.90;;;;;;5014921;28;20502;-71
2021/11/04 03:40:13;;;;;;;43.03;25.80;;;10.90;99.90;;;;;;5015742;28;20395;-71
2021/11/04 03:42:41;;;;;;;35.13;22.90;;;10.90;99.90;;;;;;5014720;28;20648;-71
2021/11/04 03:45:08;;;;;;;36.93;25.77;;;10.90;99.90;;;;;;5015395;28;20484;-71
2021/11/04 03:47:36;;;;;;;40.47;23.93;;;10.80;99.90;;;;;;5014796;28;20403;-71
2021/11/04 03:50:03;;;;;;;35.93;22.90;;;10.80;99.90;;;;;;5015306;28;20881;-71
2021/11/04 03:52:29;;;;;;;37.00;23.97;;;10.80;99.90;;;;;;5014714;28;20513;-71
2021/11/04 03:54:56;;;;;;;33.10;23.53;;;10.80;99.90;;;;;;5015220;28;20501;-71
2021/11/04 03:57:26;;;;;;;34.67;22.60;;;10.80;99.90;;;;;;5013979;28;20411;-71
2021/11/04 03:59:53;;;;;;;36.07;22.03;;;10.80;99.90;;;;;;4997616;28;20476;-70
2021/11/04 04:02:23;;;;;;;33.23;21.90;;;10.80;99.90;;;;;;5014954;28;20483;-70
2021/11/04 04:04:52;;;;;;;36.20;22.50;;;10.70;99.90;;;;;;5014454;28;20407;-71
2021/11/04 04:07:18;;;;;;;33.67;22.53;;;10.80;99.90;;;;;;5014971;28;20446;-71
2021/11/04 04:09:43;;;;;;;35.83;22.40;;;10.70;99.90;;;;;;5014287;28;20511;-70
2021/11/04 04:12:09;;;;;;;34.57;23.10;;;10.70;99.90;;;;;;5014743;28;20956;-71
2021/11/04 04:14:35;;;;;;;34.17;21.80;;;10.70;99.90;;;;;;5014219;28;20190;-71
2021/11/04 04:17:00;;;;;;;34.80;21.93;;;10.70;99.90;;;;;;5014770;28;20204;-70
2021/11/04 04:19:26;;;;;;;35.40;21.67;;;10.70;99.90;;;;;;5014815;28;20177;-70
2021/11/04 04:21:52;;;;;;;34.07;22.20;;;10.70;99.90;;;;;;4997086;28;20260;-71
2021/11/04 04:24:18;;;;;;;34.97;22.20;;;10.70;99.90;;;;;;5014743;28;20492;-71
2021/11/04 04:26:43;;;;;;;34.93;22.27;;;10.70;99.90;;;;;;4996470;28;20180;-71
2021/11/04 04:29:09;;;;;;;30.90;20.00;;;10.60;99.90;;;;;;5014658;28;20183;-70
2021/11/04 04:31:35;;;;;;;31.60;20.90;;;10.60;99.90;;;;;;5013649;28;20180;-71
2021/11/04 04:34:00;;;;;;;30.50;20.07;;;10.70;99.90;;;;;;5014757;28;20209;-71
2021/11/04 04:36:26;;;;;;;33.70;21.20;;;10.70;99.90;;;;;;5014495;28;20255;-70
2021/11/04 04:38:54;;;;;;;33.90;21.10;;;10.70;99.90;;;;;;5013846;28;20290;-70
2021/11/04 04:41:20;;;;;;;30.73;21.00;;;10.70;99.90;;;;;;5014135;28;20205;-69
2021/11/04 04:43:46;;;;;;;29.07;20.27;;;10.70;99.90;;;;;;5013658;28;20962;-71
2021/11/04 04:46:12;;;;;;;29.20;19.77;;;10.70;99.90;;;;;;5014266;28;20528;-71
2021/11/04 04:48:37;;;;;;;29.20;19.20;;;10.70;99.90;;;;;;5013617;28;20241;-70
2021/11/04 04:51:03;;;;;;;27.57;19.27;;;10.70;99.90;;;;;;5014108;28;20503;-71
2021/11/04 04:53:29;;;;;;;31.17;21.17;;;10.70;99.90;;;;;;5013669;28;20182;-74
2021/11/04 04:55:55;;;;;;;26.33;18.10;;;10.70;99.90;;;;;;5014153;28;20266;-71
2021/11/04 04:58:20;;;;;;;29.63;20.13;;;10.80;99.90;;;;;;5014096;28;20405;-71
2021/11/04 05:00:46;;;;;;;30.70;20.03;;;10.80;99.90;;;;;;5013391;28;20181;-71
2021/11/04 05:03:12;;;;;;;27.23;19.30;;;10.70;99.90;;;;;;5013977;28;20228;-71
2021/11/04 05:05:38;;;;;;;29.30;18.37;;;10.70;99.90;;;;;;4995805;28;20225;-70
2021/11/04 05:08:04;;;;;;;30.40;19.70;;;10.70;99.90;;;;;;5013483;28;20178;-70
2021/11/04 05:10:30;;;;;;;33.63;21.90;;;10.80;99.90;;;;;;5013590;28;20185;-73
2021/11/04 05:12:56;;;;;;;33.20;22.30;;;10.70;99.90;;;;;;5013894;28;20807;-71
2021/11/04 05:15:21;;;;;;;33.77;21.03;;;10.70;99.90;;;;;;5013751;28;20414;-70
2021/11/04 05:17:47;;;;;;;35.13;22.37;;;10.70;99.90;;;;;;5013137;28;20420;-70
2021/11/04 05:20:13;;;;;;;34.37;23.10;;;10.60;99.90;;;;;;5013699;28;20628;-71
2021/11/04 05:22:39;;;;;;;38.07;22.90;;;10.60;99.90;;;;;;5012851;28;20220;-71
2021/11/04 05:25:06;;;;;;;35.40;22.00;;;10.60;99.90;;;;;;5013573;28;20211;-71
2021/11/04 05:27:31;;;;;;;34.40;20.80;;;10.60;99.90;;;;;;5012962;28;20433;-72
2021/11/04 05:29:57;;;;;;;37.17;22.90;;;10.60;99.90;;;;;;5013552;28;20405;-71
2021/11/04 05:32:23;;;;;;;32.13;21.23;;;10.60;99.90;;;;;;5013143;28;20585;-70
2021/11/04 05:34:49;;;;;;;39.07;25.13;;;10.60;99.90;;;;;;5012707;28;20408;-71
2021/11/04 05:37:15;;;;;;;35.10;23.13;;;10.60;99.90;;;;;;5013095;28;20435;-71
2021/11/04 05:39:42;;;;;;;36.67;22.70;;;10.50;99.90;;;;;;5012715;28;20421;-70
2021/11/04 05:42:09;;;;;;;35.80;23.10;;;10.50;99.90;;;;;;5012833;28;20527;-70
2021/11/04 05:44:35;;;;;;;38.50;25.47;;;10.50;99.90;;;;;;5012981;28;20412;-71
2021/11/04 05:47:05;;;;;;;39.83;25.57;;;10.60;99.90;;;;;;5013130;28;20449;-70
2021/11/04 05:49:31;;;;;;;35.40;23.67;;;10.60;99.90;;;;;;5013103;28;20410;-70
2021/11/04 05:51:56;;;;;;;39.60;24.17;;;10.50;99.90;;;;;;5012818;28;20472;-71
2021/11/04 05:54:22;;;;;;;42.67;25.70;;;10.60;99.90;;;;;;5013196;28;20210;-70
2021/11/04 05:56:48;;;;;;;42.73;24.83;;;10.50;99.90;;;;;;5012479;28;20186;-70
2021/11/04 05:59:14;;;;;;;36.80;23.57;;;10.50;99.90;;;;;;5012779;28;20173;-70
2021/11/04 06:01:39;;;;;;;40.13;25.60;;;10.50;99.90;;;;;;5012618;28;20315;-70
2021/11/04 06:04:05;;;;;;;42.07;24.63;;;10.50;99.90;;;;;;5013116;28;20177;-71
2021/11/04 06:06:31;;;;;;;48.70;28.07;;;10.50;99.90;;;;;;5012960;28;20232;-70
2021/11/04 06:08:56;;;;;;;42.77;26.57;;;10.50;99.90;;;;;;4994818;28;20175;-70
2021/11/04 06:11:22;;;;;;;36.37;24.77;;;10.50;99.90;;;;;;5012913;28;20281;-70
2021/11/04 06:13:48;;;;;;;38.67;24.43;;;10.50;99.90;;;;;;5012298;28;20318;-71
2021/11/04 06:16:14;;;;;;;40.50;24.87;;;10.60;99.90;;;;;;5012907;28;20186;-70
2021/11/04 06:18:41;;;;;;;39.27;24.87;;;10.50;99.90;;;;;;5012171;28;20553;-70
2021/11/04 06:21:07;;;;;;;34.77;22.97;;;10.50;99.90;;;;;;5012029;28;20505;-70
2021/11/04 06:23:33;;;;;;;46.43;24.27;;;10.50;99.90;;;;;;5012419;28;20489;-71
2021/11/04 06:25:59;;;;;;;40.63;24.33;;;10.50;99.90;;;;;;5011895;28;20920;-71
2021/11/04 06:28:24;;;;;;;35.60;22.80;;;10.60;99.90;;;;;;4995301;28;20214;-70
2021/11/04 06:30:50;;;;;;;40.20;25.03;;;10.50;99.90;;;;;;5012188;28;20186;-70
2021/11/04 06:33:16;;;;;;;42.20;24.80;;;10.50;99.90;;;;;;5012713;28;20241;-71
2021/11/04 06:35:42;;;;;;;45.57;25.23;;;10.50;99.90;;;;;;5012101;28;20172;-71
2021/11/04 06:38:08;;;;;;;38.80;22.47;;;10.50;99.90;;;;;;5012573;28;20172;-70
2021/11/04 06:40:34;;;;;;;44.03;23.70;;;10.50;99.90;;;;;;5012545;28;20420;-71
2021/11/04 06:42:59;;;;;;;41.80;26.07;;;10.50;99.90;;;;;;5012005;28;20225;-70
2021/11/04 06:45:25;;;;;;;45.13;24.60;;;10.50;99.90;;;;;;4994808;28;20927;-70
2021/11/04 06:47:53;;;;;;;41.00;24.70;;;10.50;99.90;;;;;;5011867;28;20199;-72
2021/11/04 06:50:23;;;;;;;47.57;26.53;;;10.60;99.90;;;;;;5012263;28;20798;-72
2021/11/04 06:53:00;;;;;;;49.13;26.77;;;10.60;99.90;;;;;;5012107;28;20461;-71
2021/11/04 06:55:27;;;;;;;41.67;26.50;;;10.60;99.90;;;;;;5012401;28;20393;-71
2021/11/04 06:57:59;;;;;;;41.83;26.20;;;10.60;99.90;;;;;;5012021;28;20417;-71
2021/11/04 07:00:28;;;;;;;39.90;23.23;;;10.70;99.90;;;;;;4978740;28;20407;-71
2021/11/04 07:03:26;;;;;;;46.20;25.20;;;10.60;99.90;;;;;;5011755;28;20450;-71
2021/11/04 07:06:09;;;;;;;47.40;26.37;;;10.60;99.90;;;;;;5008908;28;20558;-71
2021/11/04 07:08:41;;;;;;;45.80;26.70;;;10.60;99.90;;;;;;5012411;28;20407;-70
2021/11/04 07:11:08;;;;;;;46.40;25.30;;;10.60;99.90;;;;;;5012527;28;20411;-71
2021/11/04 07:13:34;;;;;;;47.60;27.67;;;10.60;99.90;;;;;;5012302;28;20763;-70
2021/11/04 07:16:02;;;;;;;43.77;29.13;;;10.60;99.90;;;;;;5011439;28;20413;-71
2021/11/04 07:18:28;;;;;;;45.57;27.20;;;10.60;99.90;;;;;;5011995;28;20699;-71
2021/11/04 07:21:20;;;;;;;48.30;26.60;;;10.60;99.90;;;;;;5011663;28;20418;-71
2021/11/04 07:24:00;;;;;;;44.27;27.10;;;10.70;99.90;;;;;;5011323;28;20450;-71
2021/11/04 07:26:39;;;;;;;41.13;27.50;;;10.60;99.90;;;;;;5011806;28;20407;-70
2021/11/04 07:29:07;;;;;;;41.07;24.17;;;10.60;99.90;;;;;;4993763;28;20902;-71
2021/11/04 07:31:38;;;;;;;42.00;24.57;;;10.60;99.90;;;;;;5013500;28;20885;-70
2021/11/04 07:34:06;;;;;;;42.80;24.90;;;10.60;99.90;;;;;;5015831;28;20866;-70
2021/11/04 07:36:34;;;;;;;44.00;26.83;;;10.60;99.90;;;;;;5015254;28;20923;-71
2021/11/04 07:39:00;;;;;;;38.70;25.87;;;10.60;99.90;;;;;;4997464;28;20412;-70
2021/11/04 07:41:31;;;;;;;39.60;24.17;;;10.60;99.90;;;;;;5015068;28;20414;-71
2021/11/04 07:43:58;;;;;;;41.00;23.80;;;10.50;99.90;;;;;;5014593;28;20817;-70
2021/11/04 07:46:25;;;;;;;40.33;23.97;;;10.60;99.90;;;;;;5015340;28;20410;-70
2021/11/04 07:48:51;;;;;;;38.23;24.83;;;10.60;99.90;;;;;;5014683;28;20491;-71
2021/11/04 07:51:17;;;;;;;38.27;23.97;;;10.60;99.90;;;;;;5015718;28;20419;-71
2021/11/04 07:53:43;;;;;;;43.20;23.77;;;10.60;99.90;;;;;;5014589;28;20411;-71
2021/11/04 07:56:09;;;;;;;42.87;25.00;;;10.60;99.90;;;;;;5015240;28;20217;-70
2021/11/04 07:58:38;;;;;;;46.70;28.57;;;10.60;99.90;;;;;;5014979;28;20523;-70
2021/11/04 08:01:04;;;;;;;47.80;26.17;;;10.60;99.90;;;;;;5014517;28;20413;-71
2021/11/04 08:03:30;;;;;;;47.70;27.10;;;10.60;99.90;;;;;;5014990;28;20847;-71
2021/11/04 08:05:56;;;;;;;43.47;27.00;;;10.60;99.90;;;;;;5014440;28;20411;-71
2021/11/04 08:08:22;;;;;;;44.47;25.50;;;10.60;99.90;;;;;;5015041;28;20187;-71
2021/11/04 08:10:52;;;;;;;44.67;26.40;;;10.70;99.90;;;;;;5014087;28;20404;-70
2021/11/04 08:13:18;;;;;;;47.37;26.40;;;10.70;99.90;;;;;;5015005;28;20413;-71
2021/11/04 08:15:44;;;;;;;50.53;26.73;;;10.70;99.90;;;;;;5014059;28;20859;-71
2021/11/04 08:18:11;;;;;;;40.60;25.23;;;10.70;99.90;;;;;;5014806;28;20500;-71
2021/11/04 08:20:38;;;;;;;43.20;24.80;;;10.80;99.90;;;;;;5014866;28;20541;-70
2021/11/04 08:23:15;;;;;;;42.93;25.57;;;10.80;99.90;;;;;;5014086;28;20466;-70
2021/11/04 08:25:42;;;;;;;43.33;25.77;;;10.80;99.90;;;;;;5014483;28;20399;-71
2021/11/04 08:28:09;;;;;;;41.07;24.67;;;10.80;99.90;;;;;;5014526;28;20499;-71
2021/11/04 08:30:35;;;;;;;48.93;27.13;;;10.80;99.90;;;;;;4997148;28;20405;-71
2021/11/04 08:33:01;;;;;;;39.50;25.67;;;10.80;99.90;;;;;;5013883;28;20418;-71
2021/11/04 08:35:27;;;;;;;43.27;24.93;;;10.90;99.90;;;;;;5014338;28;20897;-71
2021/11/04 08:37:54;;;;;;;43.43;25.23;;;10.90;99.90;;;;;;5013906;28;20173;-70
2021/11/04 08:40:20;;;;;;;40.33;22.90;;;10.90;99.90;;;;;;5014364;28;20419;-71
2021/11/04 08:42:46;;;;;;;36.50;22.60;;;10.90;99.90;;;;;;5012834;28;20564;-70
2021/11/04 08:45:12;;;;;;;38.20;22.87;;;10.90;99.90;;;;;;5014378;28;20514;-70
2021/11/04 08:47:38;;;;;;;38.27;25.57;;;10.90;99.90;;;;;;5013981;28;20504;-71
2021/11/04 08:50:07;;;;;;;39.50;24.60;;;10.90;99.90;;;;;;5013621;28;20257;-71
2021/11/04 08:52:33;;;;;;;34.37;23.00;;;10.90;99.90;;;;;;5014147;28;20411;-71
2021/11/04 08:54:59;;;;;;;40.03;25.30;;;10.90;99.90;;;;;;5013530;28;20876;-70
2021/11/04 08:57:25;;;;;;;41.07;24.87;;;10.80;99.90;;;;;;5014083;28;20453;-71
2021/11/04 08:59:51;;;;;;;33.90;23.97;;;10.80;99.90;;;;;;5013707;28;20911;-70
2021/11/04 09:02:18;;;;;;;35.27;21.90;;;10.80;99.90;;;;;;5013896;28;20466;-70
2021/11/04 09:04:49;;;;;;;34.10;21.63;;;10.80;99.90;;;;;;5013261;28;20542;-72
2021/11/04 09:07:17;;;;;;;33.90;20.53;;;10.80;99.90;;;;;;5013896;28;20420;-71
2021/11/04 09:09:43;;;;;;;32.83;20.50;;;10.80;99.90;;;;;;5013352;28;21014;-70
2021/11/04 09:12:09;;;;;;;30.63;20.57;;;10.80;99.90;;;;;;5013715;28;20427;-71
2021/11/04 09:14:36;;;;;;;32.67;19.80;;;10.70;99.90;;;;;;5013703;28;20434;-70
2021/11/04 09:17:03;;;;;;;34.53;20.03;;;10.70;99.90;;;;;;5012837;28;20437;-71
2021/11/04 09:19:29;;;;;;;36.33;20.43;;;10.70;99.90;;;;;;5013687;28;20489;-71
2021/11/04 09:21:57;;;;;;;33.23;20.87;;;10.70;99.90;;;;;;5012966;28;20548;-71
2021/11/04 09:24:23;;;;;;;31.80;19.30;;;10.70;99.90;;;;;;5013596;28;20499;-70
2021/11/04 09:26:49;;;;;;;32.70;18.53;;;10.70;99.90;;;;;;5012877;28;20502;-71
2021/11/04 09:29:15;;;;;;;31.23;19.93;;;10.70;99.90;;;;;;5013243;28;20931;-71
2021/11/04 09:31:41;;;;;;;32.70;19.73;;;10.70;99.90;;;;;;5012879;28;20430;-71
2021/11/04 09:34:07;;;;;;;33.53;20.17;;;10.70;99.90;;;;;;5012495;28;20184;-71
2021/11/04 09:36:33;;;;;;;28.20;18.17;;;10.70;99.90;;;;;;5013390;28;20456;-70
2021/11/04 09:39:02;;;;;;;31.03;18.80;;;10.80;99.90;;;;;;5012745;28;20181;-71
2021/11/04 09:41:28;;;;;;;32.33;19.60;;;10.70;99.90;;;;;;5012837;28;20420;-71
2021/11/04 09:43:56;;;;;;;30.43;19.70;;;10.80;99.90;;;;;;5012677;28;20543;-71
2021/11/04 09:46:23;;;;;;;36.73;20.20;;;10.80;99.90;;;;;;5013541;28;20823;-70
2021/11/04 09:48:49;;;;;;;40.60;22.17;;;10.80;99.90;;;;;;5012311;28;20415;-71
2021/11/04 09:51:14;;;;;;;40.00;22.67;;;10.80;99.90;;;;;;5013302;28;20419;-71
2021/11/04 09:53:41;;;;;;;39.40;22.20;;;10.80;99.90;;;;;;5013283;28;20195;-70
2021/11/04 09:56:07;;;;;;;32.30;21.00;;;10.80;99.90;;;;;;5011811;28;20536;-70
2021/11/04 09:58:33;;;;;;;29.53;19.40;;;10.80;99.90;;;;;;5012939;28;20485;-70
2021/11/04 10:01:23;;;;;;;37.00;19.77;;;10.80;99.90;;;;;;5012462;28;20177;-70
2021/11/04 10:03:49;;;;;;;31.27;20.07;;;10.80;99.90;;;;;;5012193;28;20239;-70
2021/11/04 10:06:33;;;;;;;31.47;19.13;;;10.90;99.90;;;;;;5013047;28;20441;-70
2021/11/04 10:09:03;;;;;;;28.57;19.43;;;10.90;99.90;;;;;;5012438;28;20166;-70
2021/11/04 10:11:31;;;;;;;37.50;19.27;;;10.90;99.90;;;;;;5012956;28;20772;-70
2021/11/04 10:14:03;;;;;;;31.00;18.03;;;11.00;99.90;;;;;;5012031;28;20949;-70
2021/11/04 10:16:29;;;;;;;40.53;21.90;;;11.00;99.90;;;;;;5012834;28;20798;-70
2021/11/04 10:18:56;;;;;;;36.80;20.13;;;11.00;99.90;;;;;;5012258;28;20468;-70
2021/11/04 10:21:26;;;;;;;33.90;17.40;;;11.00;99.90;;;;;;5012953;28;20418;-70
2021/11/04 10:23:52;;;;;;;33.47;18.37;;;11.00;99.90;;;;;;5011870;28;20506;-70
2021/11/04 10:26:22;;;;;;;32.33;18.37;;;11.00;99.90;;;;;;4995366;28;20406;-70
2021/11/04 10:28:51;;;;;;;32.83;18.63;;;11.10;99.90;;;;;;5013049;28;20435;-70
2021/11/04 10:31:20;;;;;;;33.83;19.27;;;11.10;99.90;;;;;;5012183;28;20422;-70
2021/11/04 10:33:48;;;;;;;32.30;18.20;;;11.10;99.90;;;;;;4979008;28;20426;-70
2021/11/04 10:36:25;;;;;;;28.20;19.37;;;11.10;99.90;;;;;;5012531;28;20414;-70
2021/11/04 10:38:57;;;;;;;25.87;17.43;;;11.10;99.90;;;;;;5012411;28;20753;-70
2021/11/04 10:41:43;;;;;;;28.93;18.70;;;11.10;99.90;;;;;;5012427;28;20413;-70
2021/11/04 10:44:11;;;;;;;27.67;16.77;;;11.10;99.90;;;;;;5011776;28;20420;-70
2021/11/04 10:46:49;;;;;;;29.67;17.20;;;11.00;99.90;;;;;;5012448;28;20925;-70
2021/11/04 10:49:15;;;;;;;28.63;18.27;;;11.00;99.90;;;;;;5012626;28;20410;-70
2021/11/04 10:51:42;;;;;;;25.40;16.20;;;11.10;99.90;;;;;;5012257;28;20414;-70
2021/11/04 10:54:16;;;;;;;26.57;16.43;;;11.10;99.90;;;;;;5011886;28;20824;-70
2021/11/04 10:56:50;;;;;;;27.43;16.97;;;11.10;99.90;;;;;;5012664;28;20394;-70
2021/11/04 10:59:17;;;;;;;24.90;16.47;;;11.10;99.90;;;;;;5012515;28;20394;-70
2021/11/04 11:01:54;;;;;;;25.87;17.07;;;11.10;99.90;;;;;;5012372;28;20793;-70
2021/11/04 11:04:23;;;;;;;31.47;17.63;;;11.20;99.90;;;;;;5012399;28;20425;-70
2021/11/04 11:06:57;;;;;;;35.33;18.20;;;11.30;99.90;;;;;;5014746;28;20749;-70
2021/11/04 11:09:26;;;;;;;35.40;21.40;;;11.40;99.90;;;;;;5016086;28;20413;-70
2021/11/04 11:11:55;;;;;;;33.33;20.73;;;11.40;99.90;;;;;;5015556;28;20410;-71
2021/11/04 11:14:25;;;;;;;35.63;22.17;;;11.40;99.90;;;;;;5016199;28;20420;-70
2021/11/04 11:16:55;;;;;;;37.87;19.93;;;11.40;99.90;;;;;;5015956;28;20410;-70
2021/11/04 11:19:27;;;;;;;36.60;20.70;;;11.50;99.90;;;;;;5015566;28;20427;-70
2021/11/04 11:21:53;;;;;;;40.63;22.47;;;11.60;99.90;;;;;;5014941;28;20385;-71
2021/11/04 11:24:25;;;;;;;39.13;21.63;;;11.60;99.90;;;;;;5016031;28;20427;-70
2021/11/04 11:26:52;;;;;;;38.10;21.70;;;11.70;99.90;;;;;;5015768;28;20414;-70
2021/11/04 11:29:17;;;;;;;39.33;22.60;;;11.60;99.90;;;;;;5015701;28;20414;-70
2021/11/04 11:31:54;;;;;;;38.93;20.90;;;11.60;99.90;;;;;;5015708;28;20411;-70
2021/11/04 11:34:36;;;;;;;37.37;21.00;;;11.60;99.90;;;;;;5015738;28;20414;-70
2021/11/04 11:37:17;;;;;;;39.13;21.90;;;11.60;99.90;;;;;;5014730;28;20403;-70
2021/11/04 11:39:49;;;;;;;40.97;21.23;;;11.60;99.90;;;;;;5015708;28;20878;-70
2021/11/04 11:42:21;;;;;;;40.50;23.80;;;11.60;99.90;;;;;;5014769;28;21002;-70
2021/11/04 11:44:59;;;;;;;39.80;21.60;;;11.60;99.90;;;;;;5015332;28;20421;-70
2021/11/04 11:47:29;;;;;;;43.97;22.80;;;11.70;99.90;;;;;;5015623;28;20468;-70
2021/11/04 11:50:28;;;;;;;43.80;23.53;;;11.70;99.90;;;;;;5014534;28;20431;-71
2021/11/04 11:53:19;;;;;;;37.60;22.10;;;11.70;99.90;;;;;;5014376;28;20436;-71
2021/11/04 11:55:47;;;;;;;35.97;20.20;;;11.80;99.90;;;;;;5015238;28;20842;-70
2021/11/04 11:58:44;;;;;;;36.30;20.60;;;11.70;99.90;;;;;;5014633;28;20407;-70
2021/11/04 12:01:19;;;;;;;35.90;21.43;;;11.80;99.90;;;;;;5014643;28;20416;-70
2021/11/04 12:03:52;;;;;;;38.20;23.20;;;11.80;99.90;;;;;;5015101;28;20944;-70
2021/11/04 12:06:18;;;;;;;38.73;21.90;;;11.80;99.90;;;;;;5014478;28;20428;-70
2021/11/04 12:08:58;;;;;;;37.37;23.70;;;11.70;99.90;;;;;;5014962;28;20410;-70
2021/11/04 12:11:41;;;;;;;38.93;22.90;;;11.70;99.90;;;;;;5014803;28;20212;-70
2021/11/04 12:14:19;;;;;;;41.77;26.37;;;11.60;99.90;;;;;;4996947;28;20504;-70
2021/11/04 12:17:00;;;;;;;39.33;21.00;;;11.60;99.90;;;;;;5014525;28;20435;-70
2021/11/04 12:19:51;;;;;;;39.90;21.37;;;11.60;99.90;;;;;;5014137;28;20926;-70
2021/11/04 12:22:32;;;;;;;44.23;23.77;;;11.60;99.90;;;;;;5013740;28;20453;-70
2021/11/04 12:25:07;;;;;;;41.73;22.90;;;11.70;99.90;;;;;;5013785;28;20913;-70
2021/11/04 12:27:46;;;;;;;47.83;24.80;;;11.70;99.90;;;;;;5014546;28;20755;-70
2021/11/04 12:30:14;;;;;;;43.60;25.20;;;11.70;99.90;;;;;;5014305;28;20436;-70
2021/11/04 12:32:40;;;;;;;42.83;24.80;;;11.80;99.90;;;;;;5014535;28;20414;-70
2021/11/04 12:35:06;;;;;;;45.40;25.00;;;11.80;99.90;;;;;;4996419;28;20960;-70